Time;durP1;ratioP1;P1;durP2;ratioP2;P2;SDS_P1;SDS_P2;PMS_P1;PMS_P2;Temp;Humidity;BMP_temperature;BMP_pressure;BME280_temperature;BME280_humidity;BME280_pressure;Samples;Min_cycle;Max_cycle;Signal;HPM_P1;HPM_P2
2021/07/08 00:01:57;;;;;;;6.97;6.43;;;23.80;99.90;;;;;;3535908;40;20443;-57
2021/07/08 00:04:24;;;;;;;6.70;6.40;;;23.80;99.90;;;;;;3536255;40;20527;-58
2021/07/08 00:06:52;;;;;;;6.80;6.50;;;23.80;99.90;;;;;;3535546;40;20484;-57
2021/07/08 00:09:20;;;;;;;6.83;6.53;;;23.80;99.90;;;;;;3535205;40;20466;-58
2021/07/08 00:11:47;;;;;;;6.60;6.30;;;23.80;99.90;;;;;;3535307;40;20506;-58
2021/07/08 00:14:15;;;;;;;6.90;6.50;;;23.80;99.90;;;;;;3536060;40;20454;-57
2021/07/08 00:16:43;;;;;;;6.60;6.30;;;23.80;99.90;;;;;;3535357;40;20457;-58
2021/07/08 00:19:10;;;;;;;7.20;6.73;;;23.80;99.90;;;;;;3535628;40;20471;-56
2021/07/08 00:21:39;;;;;;;6.47;6.27;;;23.80;99.90;;;;;;3534902;40;20457;-57
2021/07/08 00:24:07;;;;;;;6.90;6.60;;;23.80;99.90;;;;;;3534794;40;20478;-58
2021/07/08 00:26:35;;;;;;;7.17;6.87;;;23.80;99.90;;;;;;3535031;40;20463;-58
2021/07/08 00:29:09;;;;;;;7.40;7.00;;;23.80;99.90;;;;;;3534993;40;21056;-59
2021/07/08 00:31:37;;;;;;;6.90;6.60;;;23.80;99.90;;;;;;3534208;40;20470;-57
2021/07/08 00:34:05;;;;;;;6.90;6.60;;;23.80;99.90;;;;;;3534885;40;20719;-57
2021/07/08 00:36:33;;;;;;;7.03;6.63;;;23.80;99.90;;;;;;3534529;40;20455;-58
2021/07/08 00:39:00;;;;;;;7.43;6.93;;;23.80;99.90;;;;;;3534793;40;20470;-57
2021/07/08 00:41:27;;;;;;;6.93;6.63;;;23.80;99.90;;;;;;3535152;40;20565;-56
2021/07/08 00:43:54;;;;;;;7.20;6.53;;;23.80;99.90;;;;;;3534668;40;20458;-58
2021/07/08 00:46:22;;;;;;;7.03;6.73;;;23.80;99.90;;;;;;3534893;40;20474;-58
2021/07/08 00:48:50;;;;;;;7.10;6.73;;;23.80;99.90;;;;;;3534315;40;20493;-57
2021/07/08 00:51:18;;;;;;;6.80;6.40;;;23.80;99.90;;;;;;3526512;40;20518;-58
2021/07/08 00:53:45;;;;;;;6.90;6.57;;;23.80;99.90;;;;;;3535503;40;20459;-57
2021/07/08 00:56:13;;;;;;;6.80;6.50;;;23.80;99.90;;;;;;3535040;40;20447;-57
2021/07/08 00:58:46;;;;;;;7.00;6.60;;;23.80;99.90;;;;;;3534643;40;20447;-57
2021/07/08 01:01:13;;;;;;;7.23;6.63;;;23.80;99.90;;;;;;3536103;40;20459;-56
2021/07/08 01:03:40;;;;;;;6.93;6.57;;;23.80;99.90;;;;;;3536242;40;20474;-58
2021/07/08 01:06:08;;;;;;;6.43;6.00;;;23.80;99.90;;;;;;3536139;40;20485;-58
2021/07/08 01:08:37;;;;;;;6.60;6.37;;;23.80;99.90;;;;;;3535997;40;20451;-57
2021/07/08 01:11:04;;;;;;;7.13;6.60;;;23.80;99.90;;;;;;3535591;40;21184;-57
2021/07/08 01:13:31;;;;;;;6.77;6.47;;;23.80;99.90;;;;;;3535923;40;20461;-58
2021/07/08 01:15:58;;;;;;;7.57;6.87;;;23.80;99.90;;;;;;3535402;40;20450;-56
2021/07/08 01:18:25;;;;;;;6.43;6.13;;;23.80;99.90;;;;;;3537164;40;21076;-57
2021/07/08 01:20:53;;;;;;;7.10;6.60;;;23.80;99.90;;;;;;3536480;40;20462;-57
2021/07/08 01:23:21;;;;;;;6.63;6.33;;;23.80;99.90;;;;;;3536186;40;20473;-57
2021/07/08 01:25:49;;;;;;;6.43;5.97;;;23.80;99.90;;;;;;3536309;40;20471;-58
2021/07/08 01:28:18;;;;;;;6.90;6.50;;;23.80;99.90;;;;;;3537476;40;20734;-57
2021/07/08 01:30:46;;;;;;;7.23;6.73;;;23.80;99.90;;;;;;3536185;40;20450;-57
2021/07/08 01:33:13;;;;;;;6.93;6.57;;;23.80;99.90;;;;;;3536425;40;20498;-57
2021/07/08 01:35:40;;;;;;;7.17;6.87;;;23.80;99.90;;;;;;3536651;40;20458;-55
2021/07/08 01:38:08;;;;;;;7.10;6.60;;;23.80;99.90;;;;;;3536392;40;20451;-57
2021/07/08 01:40:39;;;;;;;7.70;7.30;;;23.80;99.90;;;;;;3537149;40;20744;-58
2021/07/08 01:43:06;;;;;;;7.37;6.80;;;23.80;99.90;;;;;;3536447;40;20479;-57
2021/07/08 01:45:33;;;;;;;7.70;7.40;;;23.80;99.90;;;;;;3535816;40;20469;-57
2021/07/08 01:48:01;;;;;;;7.67;7.17;;;23.80;99.90;;;;;;3536053;40;20454;-58
2021/07/08 01:50:28;;;;;;;7.50;7.10;;;23.80;99.90;;;;;;3536296;40;20507;-58
2021/07/08 01:52:55;;;;;;;8.00;7.50;;;23.80;99.90;;;;;;3536383;40;20459;-57
2021/07/08 01:55:23;;;;;;;8.00;7.50;;;23.80;99.90;;;;;;3536264;40;20451;-58
2021/07/08 01:57:56;;;;;;;7.83;7.33;;;23.80;99.90;;;;;;3536208;40;20450;-58
2021/07/08 02:00:26;;;;;;;7.80;7.30;;;23.80;99.90;;;;;;3536589;40;20730;-55
2021/07/08 02:02:53;;;;;;;7.90;7.30;;;23.80;99.90;;;;;;3535853;40;20738;-57
2021/07/08 02:05:21;;;;;;;8.23;7.73;;;23.80;99.90;;;;;;3537236;40;20466;-58
2021/07/08 02:07:48;;;;;;;7.87;7.17;;;23.80;99.90;;;;;;3538144;40;20478;-56
2021/07/08 02:10:17;;;;;;;8.57;7.73;;;23.80;99.90;;;;;;3537075;40;20470;-57
2021/07/08 02:12:45;;;;;;;7.87;7.27;;;23.80;99.90;;;;;;3536371;40;20793;-58
2021/07/08 02:15:14;;;;;;;8.13;7.67;;;23.80;99.90;;;;;;3536938;40;20455;-57
2021/07/08 02:17:42;;;;;;;8.60;7.80;;;23.80;99.90;;;;;;3536129;40;21155;-58
2021/07/08 02:20:13;;;;;;;8.50;7.97;;;23.80;99.90;;;;;;3536445;40;20462;-58
2021/07/08 02:22:40;;;;;;;7.50;7.20;;;23.80;99.90;;;;;;3535561;40;20459;-58
2021/07/08 02:25:09;;;;;;;8.30;7.80;;;23.80;99.90;;;;;;3536239;40;20459;-56
2021/07/08 02:27:37;;;;;;;7.67;7.17;;;23.80;99.90;;;;;;3527488;40;20467;-58
2021/07/08 02:30:08;;;;;;;8.00;7.50;;;23.80;99.90;;;;;;3536747;40;20773;-58
2021/07/08 02:32:37;;;;;;;9.07;8.53;;;23.80;99.90;;;;;;3536748;40;20455;-57
2021/07/08 02:35:06;;;;;;;8.10;7.70;;;23.80;99.90;;;;;;3536296;40;20879;-58
2021/07/08 02:37:33;;;;;;;8.43;7.93;;;23.80;99.90;;;;;;3536205;40;20467;-58
2021/07/08 02:40:00;;;;;;;8.30;7.90;;;23.80;99.90;;;;;;3535022;40;20502;-58
2021/07/08 02:42:27;;;;;;;8.37;7.93;;;23.80;99.90;;;;;;3535725;40;20491;-58
2021/07/08 02:44:54;;;;;;;9.37;8.90;;;23.80;99.90;;;;;;3536320;40;20450;-57
2021/07/08 02:47:22;;;;;;;8.77;8.03;;;23.80;99.90;;;;;;3536109;40;20478;-58
2021/07/08 02:49:51;;;;;;;9.13;8.67;;;23.80;99.90;;;;;;3535913;40;20467;-56
2021/07/08 02:52:18;;;;;;;8.27;7.70;;;23.80;99.90;;;;;;3526504;40;20728;-57
2021/07/08 02:54:45;;;;;;;8.40;7.83;;;23.80;99.90;;;;;;3535342;40;20887;-58
2021/07/08 02:57:12;;;;;;;8.10;7.70;;;23.80;99.90;;;;;;3535754;40;20462;-57
2021/07/08 02:59:40;;;;;;;8.33;7.80;;;23.80;99.90;;;;;;3535719;40;20475;-55
2021/07/08 03:02:07;;;;;;;7.97;7.17;;;23.80;99.90;;;;;;3542863;40;20455;-58
2021/07/08 03:04:34;;;;;;;8.80;8.40;;;23.80;99.90;;;;;;3535414;40;20474;-57
2021/07/08 03:07:03;;;;;;;8.70;8.10;;;23.80;99.90;;;;;;3534036;40;20482;-57
2021/07/08 03:09:31;;;;;;;8.20;7.70;;;23.80;99.90;;;;;;3534596;40;20459;-57
2021/07/08 03:11:58;;;;;;;8.90;8.30;;;23.80;99.90;;;;;;3535472;40;21090;-57
2021/07/08 03:14:25;;;;;;;8.70;8.20;;;23.80;99.90;;;;;;3535373;40;20670;-56
2021/07/08 03:16:52;;;;;;;9.20;8.67;;;23.80;99.90;;;;;;3535628;40;20454;-57
2021/07/08 03:19:20;;;;;;;8.93;8.43;;;23.80;99.90;;;;;;3535009;40;20471;-58
2021/07/08 03:21:47;;;;;;;9.20;8.60;;;23.80;99.90;;;;;;3535377;40;20514;-58
2021/07/08 03:24:15;;;;;;;9.10;8.50;;;23.80;99.90;;;;;;3535196;40;20466;-58
2021/07/08 03:26:42;;;;;;;8.47;7.97;;;23.80;99.90;;;;;;3535290;40;20483;-57
2021/07/08 03:29:11;;;;;;;9.90;9.27;;;23.80;99.90;;;;;;3534001;40;20469;-57
2021/07/08 03:31:38;;;;;;;11.10;10.13;;;23.80;99.90;;;;;;3541641;40;20455;-57
2021/07/08 03:34:05;;;;;;;9.70;9.10;;;23.80;99.90;;;;;;3535723;40;20478;-57
2021/07/08 03:36:32;;;;;;;10.10;9.30;;;23.80;99.90;;;;;;3534495;40;20470;-58
2021/07/08 03:39:00;;;;;;;10.00;9.50;;;23.80;99.90;;;;;;3534144;40;20568;-58
2021/07/08 03:41:28;;;;;;;9.57;9.00;;;23.80;99.90;;;;;;3534497;40;20545;-57
2021/07/08 03:43:55;;;;;;;11.17;9.97;;;23.80;99.90;;;;;;3533197;40;20471;-57
2021/07/08 03:46:22;;;;;;;9.90;9.43;;;23.80;99.90;;;;;;3534626;40;20510;-58
2021/07/08 03:48:50;;;;;;;10.80;10.20;;;23.80;99.90;;;;;;3535716;40;20467;-56
2021/07/08 03:51:17;;;;;;;11.03;10.17;;;23.80;99.90;;;;;;3534449;40;20973;-58
2021/07/08 03:53:44;;;;;;;10.27;9.77;;;23.80;99.90;;;;;;3534719;40;20459;-58
2021/07/08 03:56:12;;;;;;;10.30;9.70;;;23.80;99.90;;;;;;3534941;40;20450;-56
2021/07/08 03:58:42;;;;;;;9.90;8.97;;;23.80;99.90;;;;;;3534187;40;20538;-56
2021/07/08 04:01:09;;;;;;;9.77;9.17;;;23.80;99.90;;;;;;3532817;40;20729;-57
2021/07/08 04:03:37;;;;;;;9.90;9.30;;;23.80;99.90;;;;;;3534271;40;20859;-58
2021/07/08 04:06:04;;;;;;;9.33;8.73;;;23.80;99.90;;;;;;3534332;40;20481;-58
2021/07/08 04:08:31;;;;;;;9.50;9.10;;;23.80;99.90;;;;;;3535250;40;20474;-58
2021/07/08 04:10:58;;;;;;;9.10;8.70;;;23.80;99.90;;;;;;3534979;40;21061;-57
2021/07/08 04:13:27;;;;;;;10.33;9.43;;;23.80;99.90;;;;;;3534285;40;20461;-59
2021/07/08 04:15:56;;;;;;;10.30;9.70;;;23.80;99.90;;;;;;3533842;40;20470;-58
2021/07/08 04:18:23;;;;;;;9.37;8.93;;;23.80;99.90;;;;;;3533936;40;20475;-57
2021/07/08 04:20:50;;;;;;;9.80;9.30;;;23.80;99.90;;;;;;3531899;40;20477;-57
2021/07/08 04:23:18;;;;;;;9.70;9.17;;;23.80;99.90;;;;;;3515879;40;20776;-55
2021/07/08 04:25:46;;;;;;;9.70;9.30;;;23.80;99.90;;;;;;3533329;40;20469;-57
2021/07/08 04:28:14;;;;;;;9.50;9.00;;;23.80;99.90;;;;;;3533344;40;20471;-58
2021/07/08 04:30:42;;;;;;;9.47;9.07;;;23.80;99.90;;;;;;3522648;40;20513;-58
2021/07/08 04:33:11;;;;;;;9.27;8.87;;;23.80;99.90;;;;;;3532531;40;20517;-58
2021/07/08 04:35:39;;;;;;;11.07;10.47;;;23.80;99.90;;;;;;3533417;40;20485;-58
2021/07/08 04:38:07;;;;;;;13.53;9.63;;;23.80;99.90;;;;;;3532552;40;20451;-57
2021/07/08 04:40:35;;;;;;;9.20;8.80;;;23.80;99.90;;;;;;3532380;40;20478;-57
2021/07/08 04:43:03;;;;;;;9.60;9.20;;;23.80;99.90;;;;;;3531996;40;20502;-57
2021/07/08 04:45:31;;;;;;;9.33;9.00;;;23.80;99.90;;;;;;3532370;40;20475;-58
2021/07/08 04:47:58;;;;;;;9.53;9.03;;;23.80;99.90;;;;;;3531018;40;21207;-58
2021/07/08 04:50:27;;;;;;;9.37;8.87;;;23.80;99.90;;;;;;3531453;40;20470;-58
2021/07/08 04:52:54;;;;;;;9.67;9.27;;;23.80;99.90;;;;;;3530161;40;20471;-58
2021/07/08 04:55:24;;;;;;;8.90;8.60;;;23.80;99.90;;;;;;3529617;40;20463;-58
2021/07/08 04:57:51;;;;;;;9.20;8.73;;;23.80;99.90;;;;;;3530200;40;20533;-58
2021/07/08 05:00:21;;;;;;;9.30;8.90;;;23.80;99.90;;;;;;3530692;40;20454;-58
2021/07/08 05:02:48;;;;;;;10.23;9.60;;;23.80;99.90;;;;;;3529492;40;20467;-54
2021/07/08 05:05:17;;;;;;;10.97;10.53;;;23.80;99.90;;;;;;3528675;40;20471;-59
2021/07/08 05:07:46;;;;;;;9.70;9.20;;;23.80;99.90;;;;;;3529199;40;20491;-58
2021/07/08 05:10:16;;;;;;;10.03;9.40;;;23.80;99.90;;;;;;3527601;40;20569;-58
2021/07/08 05:12:44;;;;;;;9.50;9.10;;;23.80;99.90;;;;;;3516706;40;21189;-58
2021/07/08 05:15:14;;;;;;;11.13;10.60;;;23.80;99.90;;;;;;3526466;40;21178;-57
2021/07/08 05:17:41;;;;;;;9.90;9.50;;;23.80;99.90;;;;;;3527701;40;20486;-57
2021/07/08 05:20:10;;;;;;;9.93;9.53;;;23.80;99.90;;;;;;3528152;40;20733;-57
2021/07/08 05:22:39;;;;;;;10.80;10.00;;;23.80;99.90;;;;;;3526248;40;20470;-57
2021/07/08 05:25:09;;;;;;;10.23;9.63;;;23.80;99.90;;;;;;3526802;40;20470;-58
2021/07/08 05:27:37;;;;;;;10.80;10.27;;;23.80;99.90;;;;;;3527059;40;20887;-58
2021/07/08 05:30:05;;;;;;;10.73;10.07;;;23.80;99.90;;;;;;3527056;40;20458;-58
2021/07/08 05:32:33;;;;;;;10.97;10.37;;;23.80;99.90;;;;;;3526411;40;20458;-58
2021/07/08 05:35:00;;;;;;;11.50;10.80;;;23.80;99.90;;;;;;3527447;40;20467;-57
2021/07/08 05:37:27;;;;;;;10.90;10.40;;;23.80;99.90;;;;;;3525953;40;20713;-57
2021/07/08 05:39:55;;;;;;;11.83;11.03;;;23.80;99.90;;;;;;3525310;40;20475;-57
2021/07/08 05:42:23;;;;;;;11.50;10.50;;;23.80;99.90;;;;;;3524720;40;20483;-58
2021/07/08 05:44:51;;;;;;;11.60;10.50;;;23.80;99.90;;;;;;3524199;40;20463;-58
2021/07/08 05:47:18;;;;;;;10.73;10.20;;;23.80;99.90;;;;;;3526003;40;20476;-58
2021/07/08 05:49:45;;;;;;;11.67;10.87;;;23.80;99.90;;;;;;3526432;40;20928;-58
2021/07/08 05:52:12;;;;;;;12.00;10.90;;;23.80;99.90;;;;;;3524255;40;20743;-59
2021/07/08 05:54:39;;;;;;;11.77;10.87;;;23.80;99.90;;;;;;3515750;40;20478;-58
2021/07/08 05:57:07;;;;;;;12.10;11.30;;;23.80;99.90;;;;;;3520872;40;20865;-58
2021/07/08 05:59:35;;;;;;;10.40;9.70;;;23.80;99.90;;;;;;3522768;40;20478;-58
2021/07/08 06:02:03;;;;;;;10.20;9.57;;;23.80;99.90;;;;;;3512539;40;20498;-58
2021/07/08 06:04:30;;;;;;;11.57;10.50;;;23.80;99.90;;;;;;3512426;40;20530;-57
2021/07/08 06:06:57;;;;;;;11.43;10.83;;;23.80;99.90;;;;;;3514337;40;21162;-58
2021/07/08 06:09:24;;;;;;;11.30;10.60;;;23.80;99.90;;;;;;3509611;40;20562;-57
2021/07/08 06:11:53;;;;;;;10.77;10.33;;;23.80;99.90;;;;;;3510137;40;20910;-57
2021/07/08 06:14:20;;;;;;;10.93;10.53;;;23.80;99.90;;;;;;3508387;40;20475;-58
2021/07/08 06:16:49;;;;;;;10.73;10.13;;;23.80;99.90;;;;;;3506773;40;20623;-58
2021/07/08 06:19:16;;;;;;;11.07;10.37;;;23.80;99.90;;;;;;3506781;40;20490;-57
2021/07/08 06:21:43;;;;;;;10.83;10.23;;;23.80;99.90;;;;;;3508372;40;20871;-58
2021/07/08 06:24:11;;;;;;;10.00;9.50;;;23.80;99.90;;;;;;3509162;40;20463;-58
2021/07/08 06:26:38;;;;;;;10.30;9.80;;;23.80;99.90;;;;;;3508983;40;20546;-56
2021/07/08 06:29:05;;;;;;;10.57;9.97;;;23.80;99.90;;;;;;3504994;40;20490;-58
2021/07/08 06:31:32;;;;;;;12.13;10.93;;;23.80;99.90;;;;;;3501296;40;20883;-54
2021/07/08 06:34:01;;;;;;;12.37;11.57;;;23.80;99.90;;;;;;3491103;40;20885;-55
2021/07/08 06:36:28;;;;;;;12.27;11.33;;;23.80;99.90;;;;;;3502031;40;21159;-57
2021/07/08 06:38:56;;;;;;;12.40;11.40;;;23.80;99.90;;;;;;3509568;40;20463;-57
2021/07/08 06:41:23;;;;;;;11.87;10.70;;;23.80;99.90;;;;;;3516820;40;20754;-57
2021/07/08 06:43:50;;;;;;;11.17;10.50;;;23.80;99.90;;;;;;3518704;40;20470;-57
2021/07/08 06:46:26;;;;;;;12.17;11.10;;;23.80;99.90;;;;;;3510764;40;20467;-58
2021/07/08 06:48:53;;;;;;;10.80;10.30;;;23.80;99.90;;;;;;3503225;40;20584;-57
2021/07/08 06:51:22;;;;;;;11.33;10.73;;;23.80;99.90;;;;;;3508228;40;20550;-57
2021/07/08 06:53:50;;;;;;;10.87;10.13;;;23.80;99.90;;;;;;3508008;40;20460;-57
2021/07/08 06:56:18;;;;;;;11.07;10.33;;;23.80;99.90;;;;;;3508901;40;20475;-58
2021/07/08 06:58:45;;;;;;;11.10;10.50;;;23.80;99.90;;;;;;3508299;40;20452;-58
2021/07/08 07:01:16;;;;;;;10.43;9.73;;;23.80;99.90;;;;;;3506238;40;20544;-58
2021/07/08 07:03:43;;;;;;;10.77;10.10;;;23.80;99.90;;;;;;3507500;40;20764;-58
2021/07/08 07:06:10;;;;;;;10.67;10.17;;;23.80;99.90;;;;;;3501548;40;20498;-54
2021/07/08 07:08:39;;;;;;;10.57;9.83;;;23.80;99.90;;;;;;3506204;40;20468;-57
2021/07/08 07:11:07;;;;;;;10.33;9.57;;;23.80;99.90;;;;;;3503959;40;20756;-57
2021/07/08 07:13:34;;;;;;;10.00;9.50;;;23.80;99.90;;;;;;3512185;40;20991;-57
2021/07/08 07:16:01;;;;;;;10.03;9.63;;;23.80;99.90;;;;;;3505718;40;20483;-58
2021/07/08 07:18:28;;;;;;;10.47;9.67;;;23.80;99.90;;;;;;3505361;40;20846;-57
2021/07/08 07:20:56;;;;;;;10.60;10.00;;;23.80;99.90;;;;;;3508903;40;20487;-58
2021/07/08 07:23:23;;;;;;;10.30;9.50;;;23.80;99.90;;;;;;3507377;40;20467;-57
2021/07/08 07:25:51;;;;;;;10.30;9.80;;;23.80;99.90;;;;;;3505269;40;20699;-54
2021/07/08 07:28:19;;;;;;;9.80;9.30;;;23.80;99.90;;;;;;3506417;40;20487;-56
2021/07/08 07:30:46;;;;;;;9.93;9.43;;;23.80;99.90;;;;;;3503148;40;20495;-58
2021/07/08 07:33:13;;;;;;;9.27;8.90;;;23.80;99.90;;;;;;3502195;40;20694;-56
2021/07/08 07:35:40;;;;;;;10.00;9.50;;;23.80;99.90;;;;;;3506242;40;20464;-55
2021/07/08 07:38:11;;;;;;;10.13;9.73;;;23.80;99.90;;;;;;3505364;40;20976;-58
2021/07/08 07:40:39;;;;;;;10.50;9.90;;;23.80;99.90;;;;;;3511674;40;20471;-56
2021/07/08 07:43:07;;;;;;;11.00;10.37;;;23.80;99.90;;;;;;3512773;40;20499;-57
2021/07/08 07:45:35;;;;;;;10.80;10.20;;;23.80;99.90;;;;;;3511716;40;20482;-58
2021/07/08 07:48:02;;;;;;;10.47;9.87;;;23.80;99.90;;;;;;3512633;40;20506;-56
2021/07/08 07:50:31;;;;;;;10.23;9.63;;;23.80;99.90;;;;;;3515710;40;20466;-58
2021/07/08 07:52:59;;;;;;;10.40;9.90;;;23.80;99.90;;;;;;3514376;40;20532;-57
2021/07/08 07:55:27;;;;;;;9.33;8.93;;;23.80;99.90;;;;;;3519925;40;21084;-57
2021/07/08 07:57:57;;;;;;;9.40;8.93;;;23.80;99.90;;;;;;3509233;40;20468;-57
2021/07/08 08:00:28;;;;;;;9.40;8.90;;;23.80;99.90;;;;;;3517216;40;20510;-58
2021/07/08 08:02:56;;;;;;;10.50;10.10;;;23.80;99.90;;;;;;3506974;40;20878;-53
2021/07/08 08:05:36;;;;;;;9.43;9.03;;;23.80;99.90;;;;;;3502756;40;20477;-56
2021/07/08 08:10:51;;;;;;;10.40;10.00;;;23.80;99.90;;;;;;3501177;40;20574;-57
2021/07/08 08:13:20;;;;;;;9.40;9.00;;;23.80;99.90;;;;;;3501652;40;20619;-57
2021/07/08 08:15:51;;;;;;;8.80;8.50;;;23.80;99.90;;;;;;3501298;40;20613;-55
2021/07/08 08:18:20;;;;;;;10.40;9.80;;;23.80;99.90;;;;;;3501241;40;20551;-56
2021/07/08 08:20:48;;;;;;;10.60;10.10;;;23.80;99.90;;;;;;3493714;40;20499;-57
2021/07/08 08:23:15;;;;;;;10.40;9.80;;;23.80;99.90;;;;;;3504857;40;20475;-58
2021/07/08 08:25:44;;;;;;;10.53;10.03;;;23.80;99.90;;;;;;3500518;40;21099;-58
2021/07/08 08:28:15;;;;;;;10.53;10.13;;;23.80;99.90;;;;;;3504465;40;20494;-57
2021/07/08 08:30:44;;;;;;;10.53;10.03;;;23.80;99.90;;;;;;3500877;40;20475;-58
2021/07/08 08:33:13;;;;;;;9.87;9.37;;;23.80;99.90;;;;;;3500376;40;20555;-57
2021/07/08 08:35:40;;;;;;;10.27;9.77;;;23.80;99.90;;;;;;3499823;40;20476;-59
2021/07/08 08:38:08;;;;;;;10.00;9.50;;;23.80;99.90;;;;;;3501500;40;20478;-57
2021/07/08 08:40:35;;;;;;;9.03;8.63;;;23.80;99.90;;;;;;3506632;40;20462;-59
2021/07/08 08:43:02;;;;;;;9.80;9.30;;;23.80;99.90;;;;;;3509352;40;20784;-59
2021/07/08 08:45:30;;;;;;;10.33;9.77;;;23.80;99.90;;;;;;3499238;40;20497;-57
2021/07/08 08:48:04;;;;;;;9.23;8.60;;;23.80;99.90;;;;;;3511475;40;20772;-55
2021/07/08 08:50:34;;;;;;;9.87;9.17;;;23.80;99.90;;;;;;3511884;40;20483;-57
2021/07/08 08:53:02;;;;;;;8.87;8.57;;;23.80;99.90;;;;;;3511204;40;20680;-57
2021/07/08 08:55:30;;;;;;;10.00;9.20;;;23.80;99.90;;;;;;3512019;40;20813;-58
2021/07/08 08:57:57;;;;;;;9.60;9.20;;;23.80;99.90;;;;;;3511030;40;20675;-57
2021/07/08 09:00:39;;;;;;;9.43;9.03;;;23.80;99.90;;;;;;3515691;40;21259;-58
2021/07/08 09:03:12;;;;;;;9.30;8.87;;;23.80;99.90;;;;;;3512190;40;20469;-58
2021/07/08 09:05:42;;;;;;;9.10;8.70;;;23.80;99.90;;;;;;3512440;40;20471;-57
2021/07/08 09:08:14;;;;;;;8.87;8.53;;;23.90;99.90;;;;;;3514773;40;20448;-58
2021/07/08 09:10:42;;;;;;;9.33;8.73;;;23.80;99.90;;;;;;3512530;40;20471;-57
2021/07/08 09:13:10;;;;;;;8.80;8.40;;;23.80;99.90;;;;;;3514264;40;20455;-58
2021/07/08 09:15:37;;;;;;;9.10;8.60;;;23.90;99.90;;;;;;3508027;40;20855;-57
2021/07/08 09:18:05;;;;;;;8.73;8.27;;;23.80;99.90;;;;;;3512672;40;20718;-58
2021/07/08 09:20:35;;;;;;;8.50;8.10;;;23.90;99.90;;;;;;3510070;40;20493;-58
2021/07/08 09:23:14;;;;;;;8.47;8.17;;;23.80;99.90;;;;;;3510776;40;20755;-57
2021/07/08 09:25:42;;;;;;;8.93;8.33;;;23.90;99.90;;;;;;3514030;40;21049;-57
2021/07/08 09:28:13;;;;;;;9.17;8.77;;;23.80;99.90;;;;;;3508854;40;21112;-58
2021/07/08 09:30:41;;;;;;;9.13;8.57;;;23.80;99.90;;;;;;3511660;40;20696;-59
2021/07/08 09:33:36;;;;;;;8.53;8.23;;;23.90;99.90;;;;;;3510065;40;20549;-58
2021/07/08 09:36:21;;;;;;;9.60;9.10;;;23.90;99.90;;;;;;3510106;40;20530;-59
2021/07/08 09:38:50;;;;;;;9.63;9.20;;;23.90;99.90;;;;;;3509680;40;20558;-57
2021/07/08 09:41:21;;;;;;;9.03;8.63;;;23.90;99.90;;;;;;3501120;40;20654;-58
2021/07/08 09:43:49;;;;;;;9.97;9.53;;;23.90;99.90;;;;;;3508734;40;20531;-59
2021/07/08 09:46:17;;;;;;;9.17;8.77;;;23.80;99.90;;;;;;3511312;40;20502;-58
2021/07/08 09:49:03;;;;;;;8.77;8.40;;;23.90;99.90;;;;;;3509903;40;21200;-59
2021/07/08 09:51:32;;;;;;;8.30;8.00;;;23.90;99.90;;;;;;3511705;40;20776;-57
2021/07/08 09:54:07;;;;;;;8.93;8.53;;;23.90;99.90;;;;;;3516296;40;20488;-58
2021/07/08 09:56:46;;;;;;;8.63;8.33;;;23.90;99.90;;;;;;3512456;40;20450;-58
2021/07/08 09:59:15;;;;;;;9.50;9.10;;;23.80;99.90;;;;;;3513953;40;20806;-59
2021/07/08 10:01:46;;;;;;;8.27;7.87;;;23.90;99.90;;;;;;3515086;40;20635;-58
2021/07/08 10:04:13;;;;;;;9.43;8.83;;;23.90;99.90;;;;;;3518450;40;20546;-59
2021/07/08 10:06:41;;;;;;;9.23;8.50;;;23.90;99.90;;;;;;3514017;40;21023;-59
2021/07/08 10:09:17;;;;;;;8.83;8.23;;;23.90;99.90;;;;;;3513114;40;20769;-60
2021/07/08 10:11:48;;;;;;;9.10;8.70;;;23.90;99.90;;;;;;3514897;40;20504;-59
2021/07/08 10:14:18;;;;;;;8.67;8.23;;;23.90;99.90;;;;;;3512415;40;20483;-59
2021/07/08 10:16:49;;;;;;;8.57;7.97;;;23.90;99.90;;;;;;3506464;40;21035;-57
2021/07/08 10:19:18;;;;;;;8.13;7.53;;;23.90;99.90;;;;;;3510294;40;20489;-59
2021/07/08 10:21:47;;;;;;;7.90;7.60;;;23.90;99.90;;;;;;3515143;40;20455;-58
2021/07/08 10:24:17;;;;;;;7.97;7.57;;;23.90;99.90;;;;;;3514336;40;20561;-59
2021/07/08 10:26:45;;;;;;;8.17;7.63;;;23.90;99.90;;;;;;3509278;40;20752;-56
2021/07/08 10:29:14;;;;;;;8.33;7.80;;;23.90;99.90;;;;;;3509883;40;21419;-59
2021/07/08 10:31:46;;;;;;;7.40;7.10;;;23.90;99.90;;;;;;3488858;40;20560;-60
2021/07/08 10:34:16;;;;;;;8.90;7.50;;;23.90;99.90;;;;;;3507075;40;20459;-59
2021/07/08 10:36:46;;;;;;;8.83;8.33;;;23.90;99.90;;;;;;3511058;40;20466;-57
2021/07/08 10:39:15;;;;;;;8.50;8.17;;;23.90;99.90;;;;;;3506404;40;20695;-59
2021/07/08 10:41:55;;;;;;;8.13;7.83;;;23.90;99.90;;;;;;3510076;40;20765;-59
2021/07/08 10:44:39;;;;;;;8.90;8.50;;;23.90;99.90;;;;;;3513465;40;20773;-59
2021/07/08 10:47:08;;;;;;;8.60;8.20;;;23.90;99.90;;;;;;3513606;40;20514;-59
2021/07/08 10:49:40;;;;;;;9.00;8.50;;;23.90;99.90;;;;;;3513231;40;20742;-59
2021/07/08 10:52:09;;;;;;;7.70;7.40;;;23.90;99.90;;;;;;3513089;40;21394;-58
2021/07/08 10:54:37;;;;;;;8.17;7.77;;;23.90;99.90;;;;;;3510210;40;20459;-59
2021/07/08 10:57:26;;;;;;;8.77;8.20;;;23.90;99.90;;;;;;3512206;40;20497;-59
2021/07/08 10:59:54;;;;;;;8.37;7.73;;;23.90;99.90;;;;;;3511909;40;20721;-58
2021/07/08 11:02:46;;;;;;;7.67;7.37;;;23.90;99.90;;;;;;3520570;40;21138;-59
2021/07/08 11:05:14;;;;;;;8.20;7.70;;;23.90;99.90;;;;;;3515602;40;20925;-59
2021/07/08 11:07:47;;;;;;;8.20;7.80;;;23.90;99.90;;;;;;3516929;40;20458;-59
2021/07/08 11:10:15;;;;;;;7.87;7.57;;;23.90;99.90;;;;;;3513755;40;20518;-58
2021/07/08 11:12:47;;;;;;;8.23;7.93;;;23.90;99.90;;;;;;3515542;40;20477;-59
2021/07/08 11:15:15;;;;;;;8.00;7.60;;;23.90;99.90;;;;;;3514062;40;21154;-59
2021/07/08 11:17:45;;;;;;;8.03;7.63;;;23.90;99.90;;;;;;3510245;40;21316;-59
2021/07/08 11:20:29;;;;;;;7.73;7.43;;;23.90;99.90;;;;;;3506811;40;21108;-58
2021/07/08 11:22:57;;;;;;;8.47;7.90;;;23.90;99.90;;;;;;3506181;40;20464;-59
2021/07/08 11:25:42;;;;;;;7.43;7.13;;;23.90;99.90;;;;;;3505127;40;20448;-57
2021/07/08 11:28:31;;;;;;;7.70;7.40;;;23.90;99.90;;;;;;3501699;40;20835;-59
2021/07/08 11:31:00;;;;;;;8.03;7.73;;;23.90;99.90;;;;;;3504378;40;20998;-58
2021/07/08 11:34:00;;;;;;;7.87;7.57;;;23.90;99.90;;;;;;3511178;40;20502;-59
2021/07/08 11:36:27;;;;;;;8.13;7.47;;;23.90;99.90;;;;;;3502208;40;21194;-59
2021/07/08 11:38:55;;;;;;;7.20;7.00;;;23.90;99.90;;;;;;3504716;40;20533;-58
2021/07/08 11:41:27;;;;;;;7.17;6.97;;;23.90;99.90;;;;;;3503936;40;20478;-58
2021/07/08 11:43:55;;;;;;;7.30;7.10;;;23.90;99.90;;;;;;3514848;40;20770;-58
2021/07/08 11:46:23;;;;;;;7.80;7.40;;;23.90;99.90;;;;;;3514481;40;20485;-58
2021/07/08 11:48:51;;;;;;;7.83;7.50;;;23.90;99.90;;;;;;3512258;40;20846;-55
2021/07/08 11:51:20;;;;;;;8.00;7.70;;;23.90;99.90;;;;;;3510408;40;20875;-56
2021/07/08 11:53:49;;;;;;;8.93;8.30;;;23.90;99.90;;;;;;3512349;40;20455;-59
2021/07/08 11:56:17;;;;;;;7.40;7.10;;;23.90;99.90;;;;;;3511770;40;20684;-56
2021/07/08 11:58:44;;;;;;;7.83;7.33;;;23.90;99.90;;;;;;3509671;40;20659;-58
2021/07/08 12:01:19;;;;;;;7.60;7.30;;;23.90;99.90;;;;;;3513313;40;20450;-58
2021/07/08 12:03:48;;;;;;;7.30;7.10;;;23.90;99.90;;;;;;3513951;40;20477;-60
2021/07/08 12:06:26;;;;;;;7.50;7.20;;;23.90;99.90;;;;;;3510327;40;20477;-58
2021/07/08 12:08:56;;;;;;;7.40;7.10;;;23.90;99.90;;;;;;3516340;40;21067;-59
2021/07/08 12:11:29;;;;;;;7.40;7.10;;;23.90;99.90;;;;;;3513472;40;20869;-56
2021/07/08 12:13:58;;;;;;;8.17;7.77;;;23.90;99.90;;;;;;3508656;40;21239;-59
2021/07/08 12:16:30;;;;;;;7.80;7.30;;;23.80;99.90;;;;;;3512102;40;20591;-58
2021/07/08 12:18:59;;;;;;;7.70;7.20;;;23.90;99.90;;;;;;3512395;40;20901;-59
2021/07/08 12:21:29;;;;;;;7.20;6.90;;;23.90;99.90;;;;;;3510987;40;20471;-59
2021/07/08 12:23:58;;;;;;;8.10;7.70;;;23.90;99.90;;;;;;3511656;40;21185;-59
2021/07/08 12:26:31;;;;;;;7.90;7.60;;;23.90;99.90;;;;;;3504037;40;20489;-59
2021/07/08 12:29:17;;;;;;;8.10;7.80;;;23.90;99.90;;;;;;3509459;40;20471;-57
2021/07/08 12:31:48;;;;;;;8.63;8.33;;;23.90;99.90;;;;;;3511345;40;20500;-60
2021/07/08 12:34:17;;;;;;;9.03;8.63;;;23.90;99.90;;;;;;3510252;40;20879;-59
2021/07/08 12:36:47;;;;;;;8.40;8.00;;;23.90;99.90;;;;;;3512907;40;20465;-59
2021/07/08 12:39:24;;;;;;;8.97;8.63;;;23.90;99.90;;;;;;3508101;40;20466;-58
2021/07/08 12:41:51;;;;;;;8.10;7.80;;;23.90;99.90;;;;;;3508556;40;20497;-58
2021/07/08 12:44:19;;;;;;;8.33;7.93;;;23.90;99.90;;;;;;3510701;40;20490;-55
2021/07/08 12:46:54;;;;;;;8.70;8.40;;;23.90;99.90;;;;;;3495693;40;21105;-57
2021/07/08 12:49:22;;;;;;;8.33;7.90;;;23.90;99.90;;;;;;3508838;40;20486;-57
2021/07/08 12:51:49;;;;;;;8.10;7.80;;;23.90;99.90;;;;;;3505112;40;20459;-58
2021/07/08 12:54:19;;;;;;;7.70;7.30;;;23.90;99.90;;;;;;3508093;40;20635;-57
2021/07/08 12:57:02;;;;;;;8.73;8.43;;;23.90;99.90;;;;;;3507250;40;20782;-58